createdAt,value
2018-11-06T00:01:09.391Z,100196.00
2018-11-06T00:03:42.919Z,100195.00
2018-11-06T00:06:11.182Z,100194.00
2018-11-06T00:08:39.127Z,100198.00
2018-11-06T00:11:07.939Z,100206.00
2018-11-06T00:13:35.943Z,100203.00
2018-11-06T00:16:03.911Z,100194.00
2018-11-06T00:18:31.852Z,100191.00
2018-11-06T00:20:59.982Z,100190.00
2018-11-06T00:23:27.982Z,100196.00
2018-11-06T00:25:55.979Z,100196.00
2018-11-06T00:28:23.926Z,100197.00
2018-11-06T00:30:51.891Z,100201.00
2018-11-06T00:33:19.874Z,100203.00
2018-11-06T00:35:47.848Z,100196.00
2018-11-06T00:38:15.783Z,100204.00
2018-11-06T00:40:43.739Z,100215.00
2018-11-06T00:43:11.815Z,100224.00
2018-11-06T00:45:39.776Z,100232.00
2018-11-06T00:48:07.732Z,100242.00
2018-11-06T00:50:35.728Z,100227.00
2018-11-06T00:53:03.669Z,100223.00
2018-11-06T00:55:31.623Z,100219.00
2018-11-06T00:57:59.565Z,100228.00
2018-11-06T01:00:27.536Z,100221.00
2018-11-06T01:02:55.500Z,100216.00
2018-11-06T01:05:23.487Z,100213.00
2018-11-06T01:07:51.441Z,100213.00
2018-11-06T01:10:19.426Z,100223.00
2018-11-06T01:12:47.470Z,100215.00
2018-11-06T01:15:16.299Z,100212.00
2018-11-06T01:17:45.095Z,100215.00
2018-11-06T01:20:15.021Z,100222.00
2018-11-06T01:22:43.015Z,100222.00
2018-11-06T01:25:11.550Z,100223.00
2018-11-06T01:27:39.728Z,100220.00
2018-11-06T01:30:11.303Z,100219.00
2018-11-06T01:32:39.353Z,100222.00
2018-11-06T01:35:08.272Z,100237.00
2018-11-06T01:37:36.250Z,100235.00
2018-11-06T01:40:04.759Z,100228.00
2018-11-06T01:42:32.705Z,100224.00
2018-11-06T01:45:00.657Z,100227.00
2018-11-06T01:47:28.604Z,100223.00
2018-11-06T01:49:56.571Z,100222.00
2018-11-06T01:52:24.519Z,100217.00
2018-11-06T01:54:52.471Z,100214.00
2018-11-06T01:57:20.439Z,100214.00
2018-11-06T01:59:48.378Z,100215.00
2018-11-06T02:02:16.367Z,100206.00
2018-11-06T02:04:44.308Z,100208.00
2018-11-06T02:07:12.272Z,100201.00
2018-11-06T02:09:40.205Z,100198.00
2018-11-06T02:12:08.172Z,100189.00
2018-11-06T02:14:36.123Z,100190.00
2018-11-06T02:17:04.196Z,100192.00
2018-11-06T02:19:33.039Z,100195.00
2018-11-06T02:22:01.005Z,100187.00
2018-11-06T02:24:28.937Z,100183.00
2018-11-06T02:26:56.895Z,100177.00
2018-11-06T02:29:24.830Z,100174.00
2018-11-06T02:31:52.940Z,100176.00
2018-11-06T02:34:20.896Z,100182.00
2018-11-06T02:36:48.840Z,100184.00
2018-11-06T02:39:16.808Z,100189.00
2018-11-06T02:41:44.934Z,100190.00
2018-11-06T02:44:13.008Z,100191.00
2018-11-06T02:46:40.956Z,100191.00
2018-11-06T02:49:08.920Z,100199.00
2018-11-06T02:51:36.867Z,100198.00
2018-11-06T02:54:05.060Z,100192.00
2018-11-06T02:56:33.028Z,100185.00
2018-11-06T02:59:00.971Z,100182.00
2018-11-06T03:01:28.945Z,100179.00
2018-11-06T03:03:56.924Z,100175.00
2018-11-06T03:06:24.903Z,100180.00
2018-11-06T03:08:52.844Z,100177.00
2018-11-06T03:11:20.787Z,100168.00
2018-11-06T03:13:48.760Z,100169.00
2018-11-06T03:16:16.735Z,100162.00
2018-11-06T03:18:44.709Z,100156.00
2018-11-06T03:21:12.648Z,100156.00
2018-11-06T03:23:40.610Z,100162.00
2018-11-06T03:26:08.554Z,100169.00
2018-11-06T03:28:36.516Z,100169.00
2018-11-06T03:31:04.471Z,100165.00
2018-11-06T03:33:35.745Z,100171.00
2018-11-06T03:36:03.674Z,100162.00
2018-11-06T03:38:31.654Z,100160.00
2018-11-06T03:40:59.596Z,100191.00
2018-11-06T03:43:27.535Z,100201.00
2018-11-06T03:45:55.461Z,100185.00
2018-11-06T03:48:23.450Z,100189.00
2018-11-06T03:50:51.390Z,100203.00
2018-11-06T03:53:19.332Z,100210.00
2018-11-06T03:55:47.267Z,100201.00
2018-11-06T03:58:15.220Z,100183.00
2018-11-06T04:00:43.138Z,100172.00
2018-11-06T04:03:11.095Z,100161.00
2018-11-06T04:05:39.047Z,100151.00
2018-11-06T04:08:07.028Z,100161.00
2018-11-06T04:10:34.978Z,100178.00
2018-11-06T04:13:02.903Z,100178.00
2018-11-06T04:15:30.839Z,100176.00
2018-11-06T04:17:58.767Z,100190.00
2018-11-06T04:20:26.703Z,100190.00
2018-11-06T04:22:54.675Z,100189.00
2018-11-06T04:25:22.629Z,100194.00
2018-11-06T04:27:50.577Z,100193.00
2018-11-06T04:30:18.538Z,100194.00
2018-11-06T04:32:46.489Z,100197.00
2018-11-06T04:35:14.406Z,100209.00
2018-11-06T04:37:42.621Z,100203.00
2018-11-06T04:40:12.303Z,100192.00
2018-11-06T04:42:40.235Z,100188.00
2018-11-06T04:45:09.285Z,100178.00
2018-11-06T04:47:37.247Z,100175.00
2018-11-06T04:50:05.645Z,100164.00
2018-11-06T04:52:33.571Z,100146.00
2018-11-06T04:55:01.516Z,100150.00
2018-11-06T04:57:29.440Z,100152.00
2018-11-06T04:59:57.421Z,100155.00
2018-11-06T05:02:25.371Z,100156.00
2018-11-06T05:04:53.327Z,100151.00
2018-11-06T05:07:21.384Z,100144.00
2018-11-06T05:09:49.311Z,100150.00
2018-11-06T05:12:17.241Z,100162.00
2018-11-06T05:14:45.319Z,100152.00
2018-11-06T05:17:13.231Z,100144.00
2018-11-06T05:19:41.356Z,100139.00
2018-11-06T05:22:09.320Z,100143.00
2018-11-06T05:24:37.263Z,100126.00
2018-11-06T05:27:05.440Z,100120.00
2018-11-06T05:29:33.626Z,100125.00
2018-11-06T05:32:01.677Z,100131.00
2018-11-06T05:34:29.620Z,100131.00
2018-11-06T05:36:57.579Z,100125.00
2018-11-06T05:39:25.604Z,100118.00
2018-11-06T05:41:53.476Z,100131.00
2018-11-06T05:44:21.431Z,100133.00
2018-11-06T05:46:49.382Z,100131.00
2018-11-06T05:49:17.307Z,100128.00
2018-11-06T05:51:45.255Z,100124.00
2018-11-06T05:54:13.248Z,100129.00
2018-11-06T05:56:41.127Z,100137.00
2018-11-06T05:59:09.307Z,100137.00
2018-11-06T06:01:37.254Z,100138.00
2018-11-06T06:04:05.431Z,100138.00
2018-11-06T06:06:33.356Z,100137.00
2018-11-06T06:09:01.284Z,100144.00
2018-11-06T06:11:29.212Z,100153.00
2018-11-06T06:13:57.171Z,100163.00
2018-11-06T06:16:25.083Z,100174.00
2018-11-06T06:18:53.020Z,100172.00
2018-11-06T06:21:20.994Z,100176.00
2018-11-06T06:23:48.931Z,100181.00
2018-11-06T06:26:16.893Z,100184.00
2018-11-06T06:28:44.819Z,100182.00
2018-11-06T06:31:12.736Z,100184.00
2018-11-06T06:33:40.855Z,100175.00
2018-11-06T06:36:08.802Z,100185.00
2018-11-06T06:38:36.741Z,100195.00
2018-11-06T06:41:04.933Z,100185.00
2018-11-06T06:43:32.803Z,100179.00
2018-11-06T06:46:00.893Z,100178.00
2018-11-06T06:48:28.833Z,100181.00
2018-11-06T06:50:56.756Z,100179.00
2018-11-06T06:53:24.698Z,100182.00
2018-11-06T06:55:52.644Z,100180.00
2018-11-06T06:58:20.568Z,100191.00
2018-11-06T07:00:48.515Z,100192.00
2018-11-06T07:03:16.469Z,100196.00
2018-11-06T07:05:44.402Z,100191.00
2018-11-06T07:08:12.400Z,100200.00
2018-11-06T07:10:40.350Z,100214.00
2018-11-06T07:13:08.531Z,100225.00
2018-11-06T07:15:36.331Z,100221.00
2018-11-06T07:18:04.255Z,100220.00
2018-11-06T07:20:32.169Z,100219.00
2018-11-06T07:23:00.167Z,100216.00
2018-11-06T07:25:28.107Z,100217.00
2018-11-06T07:27:56.051Z,100219.00
2018-11-06T07:30:24.000Z,100219.00
2018-11-06T07:32:51.939Z,100215.00
2018-11-06T07:35:20.351Z,100216.00
2018-11-06T07:37:48.239Z,100212.00
2018-11-06T07:40:17.423Z,100218.00
2018-11-06T07:42:45.367Z,100219.00
2018-11-06T07:45:15.331Z,100232.00
2018-11-06T07:47:43.499Z,100240.00
2018-11-06T07:50:12.291Z,100247.00
2018-11-06T07:52:40.423Z,100249.00
2018-11-06T07:55:10.295Z,100252.00
2018-11-06T07:57:38.240Z,100255.00
2018-11-06T08:00:14.431Z,100250.00
2018-11-06T08:02:42.767Z,100245.00
2018-11-06T08:05:10.819Z,100242.00
2018-11-06T08:07:38.781Z,100245.00
2018-11-06T08:10:07.100Z,100246.00
2018-11-06T08:12:35.027Z,100252.00
2018-11-06T08:15:03.182Z,100250.00
2018-11-06T08:17:31.115Z,100252.00
2018-11-06T08:19:59.092Z,100241.00
2018-11-06T08:22:27.052Z,100240.00
2018-11-06T08:24:55.030Z,100231.00
2018-11-06T08:27:22.964Z,100227.00
2018-11-06T08:29:50.970Z,100240.00
2018-11-06T08:32:19.357Z,100254.00
2018-11-06T08:34:46.862Z,100259.00
2018-11-06T08:37:14.828Z,100255.00
2018-11-06T08:39:42.749Z,100243.00
2018-11-06T08:42:10.748Z,100243.00
2018-11-06T08:44:38.676Z,100237.00
2018-11-06T08:47:06.673Z,100245.00
2018-11-06T08:49:34.648Z,100243.00
2018-11-06T08:52:02.615Z,100240.00
2018-11-06T08:54:30.593Z,100235.00
2018-11-06T08:56:58.507Z,100226.00
2018-11-06T08:59:26.447Z,100222.00
2018-11-06T09:01:54.370Z,100217.00
2018-11-06T09:04:22.316Z,100222.00
2018-11-06T09:06:50.228Z,100235.00
2018-11-06T09:09:18.180Z,100229.00
2018-11-06T09:11:46.105Z,100228.00
2018-11-06T09:14:14.047Z,100225.00
2018-11-06T09:16:41.956Z,100230.00
2018-11-06T09:19:09.906Z,100232.00
2018-11-06T09:21:37.824Z,100236.00
2018-11-06T09:24:05.900Z,100230.00
2018-11-06T09:26:33.843Z,100222.00
2018-11-06T09:29:01.861Z,100220.00
2018-11-06T09:31:30.101Z,100218.00
2018-11-06T09:33:58.529Z,100207.00
2018-11-06T09:36:26.831Z,100206.00
2018-11-06T09:38:54.774Z,100208.00
2018-11-06T09:41:22.770Z,100205.00
2018-11-06T09:43:50.730Z,100207.00
2018-11-06T09:46:18.680Z,100206.00
2018-11-06T09:48:47.527Z,100209.00
2018-11-06T09:51:15.427Z,100209.00
2018-11-06T09:53:43.351Z,100212.00
2018-11-06T09:56:11.328Z,100208.00
2018-11-06T09:58:39.250Z,100202.00
2018-11-06T10:01:07.193Z,100207.00
2018-11-06T10:03:35.143Z,100203.00
2018-11-06T10:06:03.142Z,100216.00
2018-11-06T10:08:31.001Z,100215.00
2018-11-06T10:10:58.923Z,100217.00
2018-11-06T10:13:26.869Z,100209.00
2018-11-06T10:15:54.807Z,100213.00
2018-11-06T10:18:22.784Z,100211.00
2018-11-06T10:20:50.701Z,100216.00
2018-11-06T10:23:18.639Z,100220.00
2018-11-06T10:25:46.555Z,100225.00
2018-11-06T10:28:14.531Z,100207.00
2018-11-06T10:30:42.528Z,100209.00
2018-11-06T10:33:10.799Z,100209.00
2018-11-06T10:35:38.729Z,100206.00
2018-11-06T10:38:06.722Z,100204.00
2018-11-06T10:40:34.615Z,100202.00
2018-11-06T10:43:02.531Z,100205.00
2018-11-06T10:45:30.496Z,100196.00
2018-11-06T10:47:58.451Z,100185.00
2018-11-06T10:50:26.392Z,100177.00
2018-11-06T10:52:54.314Z,100169.00
2018-11-06T10:55:22.275Z,100160.00
2018-11-06T10:57:50.276Z,100157.00
2018-11-06T11:00:23.584Z,100155.00
2018-11-06T11:02:56.849Z,100148.00
2018-11-06T11:05:26.560Z,100149.00
2018-11-06T11:07:54.499Z,100136.00
2018-11-06T11:10:22.410Z,100135.00
2018-11-06T11:12:50.343Z,100132.00
2018-11-06T11:15:18.260Z,100132.00
2018-11-06T11:17:46.208Z,100127.00
2018-11-06T11:20:14.865Z,100127.00
2018-11-06T11:22:43.084Z,100136.00
2018-11-06T11:25:12.474Z,100126.00
2018-11-06T11:27:40.628Z,100126.00
2018-11-06T11:30:10.474Z,100118.00
2018-11-06T11:32:38.623Z,100123.00
2018-11-06T11:35:06.897Z,100116.00
2018-11-06T11:37:35.234Z,100111.00
2018-11-06T11:40:03.359Z,100100.00
2018-11-06T11:42:31.301Z,100088.00
2018-11-06T11:44:59.227Z,100076.00
2018-11-06T11:47:27.175Z,100073.00
2018-11-06T11:49:55.099Z,100061.00
2018-11-06T11:52:23.049Z,100048.00
2018-11-06T11:54:51.019Z,100041.00
2018-11-06T11:57:19.003Z,100052.00
2018-11-06T11:59:46.986Z,100050.00
2018-11-06T12:02:14.933Z,100062.00
2018-11-06T12:04:42.863Z,100060.00
2018-11-06T12:07:10.843Z,100059.00
2018-11-06T12:09:38.866Z,100056.00
2018-11-06T12:12:06.802Z,100057.00
2018-11-06T12:14:34.895Z,100053.00
2018-11-06T12:17:02.835Z,100041.00
2018-11-06T12:19:30.824Z,100043.00
2018-11-06T12:21:58.911Z,100038.00
2018-11-06T12:24:26.880Z,100043.00
2018-11-06T12:26:54.871Z,100044.00
2018-11-06T12:29:22.910Z,100041.00
2018-11-06T12:31:50.848Z,100036.00
2018-11-06T12:34:18.796Z,100036.00
2018-11-06T12:36:46.789Z,100018.00
2018-11-06T12:39:14.706Z,100021.00
2018-11-06T12:41:42.694Z,100023.00
2018-11-06T12:44:10.636Z,100022.00
2018-11-06T12:46:38.672Z,100014.00
2018-11-06T12:49:06.763Z,100017.00
2018-11-06T12:51:34.723Z,100018.00
2018-11-06T12:54:02.689Z,100016.00
2018-11-06T12:56:30.656Z,100007.00
2018-11-06T12:58:58.583Z,100002.00
2018-11-06T13:01:26.511Z,99995.00
2018-11-06T13:03:54.442Z,99995.00
2018-11-06T13:06:22.361Z,99999.00
2018-11-06T13:08:50.383Z,100004.00
2018-11-06T13:11:18.331Z,100013.00
2018-11-06T13:13:46.267Z,100013.00
2018-11-06T13:16:14.315Z,100002.00
2018-11-06T13:18:42.195Z,100005.00
2018-11-06T13:21:10.128Z,99988.00
2018-11-06T13:23:38.079Z,99988.00
2018-11-06T13:26:06.058Z,99988.00
2018-11-06T13:28:33.943Z,99986.00
2018-11-06T13:31:01.868Z,99985.00
2018-11-06T13:33:29.879Z,99971.00
2018-11-06T13:35:57.823Z,99965.00
2018-11-06T13:38:25.735Z,99963.00
2018-11-06T13:40:53.670Z,99966.00
2018-11-06T13:43:21.673Z,99956.00
2018-11-06T13:45:49.620Z,99958.00
2018-11-06T13:48:17.532Z,99956.00
2018-11-06T13:50:45.457Z,99954.00
2018-11-06T13:53:13.407Z,99954.00
2018-11-06T13:55:41.340Z,99949.00
2018-11-06T13:58:09.290Z,99952.00
2018-11-06T14:00:37.245Z,99960.00
2018-11-06T14:03:05.212Z,99966.00
2018-11-06T14:05:33.156Z,99969.00
2018-11-06T14:08:01.127Z,99971.00
2018-11-06T14:10:29.103Z,99972.00
2018-11-06T14:12:57.095Z,99966.00
2018-11-06T14:15:25.055Z,99973.00
2018-11-06T14:17:52.979Z,99974.00
2018-11-06T14:20:20.937Z,99982.00
2018-11-06T14:22:48.871Z,99980.00
2018-11-06T14:25:16.830Z,99984.00
2018-11-06T14:27:44.788Z,99976.00
2018-11-06T14:30:14.999Z,99980.00
2018-11-06T14:32:42.919Z,99989.00
2018-11-06T14:35:12.160Z,99987.00
2018-11-06T14:37:40.648Z,99986.00
2018-11-06T14:40:09.511Z,99994.00
2018-11-06T14:42:37.866Z,99997.00
2018-11-06T14:45:07.390Z,99996.00
2018-11-06T14:47:35.356Z,99995.00
2018-11-06T14:50:03.947Z,99989.00
2018-11-06T14:52:32.036Z,99998.00
2018-11-06T14:54:59.956Z,100000.00
2018-11-06T14:57:27.920Z,99995.00
2018-11-06T14:59:55.848Z,99995.00
2018-11-06T15:02:23.763Z,99990.00
2018-11-06T15:04:51.708Z,99991.00
2018-11-06T15:07:19.631Z,99992.00
2018-11-06T15:09:47.550Z,99984.00
2018-11-06T15:12:15.475Z,99991.00
2018-11-06T15:14:43.444Z,99995.00
2018-11-06T15:17:11.409Z,100002.00
2018-11-06T15:19:39.389Z,100001.00
2018-11-06T15:22:07.331Z,99996.00
2018-11-06T15:24:35.287Z,99988.00
2018-11-06T15:27:03.197Z,99989.00
2018-11-06T15:29:31.154Z,100003.00
2018-11-06T15:31:59.141Z,100004.00
2018-11-06T15:34:27.052Z,100013.00
2018-11-06T15:36:55.007Z,100013.00
2018-11-06T15:39:22.948Z,100008.00
2018-11-06T15:41:51.051Z,100009.00
2018-11-06T15:44:18.864Z,100010.00
2018-11-06T15:46:46.805Z,100004.00
2018-11-06T15:49:14.789Z,100000.00
2018-11-06T15:51:42.688Z,100002.00
2018-11-06T15:54:10.656Z,100003.00
2018-11-06T15:56:38.603Z,100006.00
2018-11-06T15:59:11.928Z,100001.00
2018-11-06T16:01:40.005Z,100004.00
2018-11-06T16:04:07.933Z,100011.00
2018-11-06T16:06:35.879Z,100016.00
2018-11-06T16:09:04.896Z,100020.00
2018-11-06T16:11:32.832Z,100037.00
2018-11-06T16:14:00.775Z,100046.00
2018-11-06T16:16:28.723Z,100058.00
2018-11-06T16:18:56.664Z,100064.00
2018-11-06T16:21:24.619Z,100076.00
2018-11-06T16:23:52.547Z,100072.00
2018-11-06T16:26:20.501Z,100073.00
2018-11-06T16:28:48.427Z,100073.00
2018-11-06T16:31:16.347Z,100066.00
2018-11-06T16:33:44.348Z,100074.00
2018-11-06T16:36:12.257Z,100090.00
2018-11-06T16:38:40.179Z,100084.00
2018-11-06T16:41:08.203Z,100075.00
2018-11-06T16:43:36.311Z,100083.00
2018-11-06T16:46:04.386Z,100086.00
2018-11-06T16:48:32.361Z,100083.00
2018-11-06T16:51:00.278Z,100081.00
2018-11-06T16:53:28.199Z,100086.00
2018-11-06T16:55:56.136Z,100086.00
2018-11-06T16:58:24.078Z,100089.00
2018-11-06T17:00:52.113Z,100086.00
2018-11-06T17:03:19.946Z,100082.00
2018-11-06T17:05:47.876Z,100079.00
2018-11-06T17:08:15.808Z,100074.00
2018-11-06T17:10:43.739Z,100088.00
2018-11-06T17:13:11.683Z,100091.00
2018-11-06T17:15:39.688Z,100100.00
2018-11-06T17:18:07.663Z,100105.00
2018-11-06T17:20:35.623Z,100107.00
2018-11-06T17:23:03.528Z,100117.00
2018-11-06T17:25:31.526Z,100120.00
2018-11-06T17:27:59.399Z,100125.00
2018-11-06T17:30:27.336Z,100120.00
2018-11-06T17:32:55.271Z,100120.00
2018-11-06T17:35:23.166Z,100124.00
2018-11-06T17:37:51.112Z,100118.00
2018-11-06T17:40:20.138Z,100132.00
2018-11-06T17:42:48.076Z,100137.00
2018-11-06T17:45:18.427Z,100130.00
2018-11-06T17:47:46.346Z,100140.00
2018-11-06T17:50:15.264Z,100135.00
2018-11-06T17:52:43.198Z,100144.00
2018-11-06T17:55:12.603Z,100146.00
2018-11-06T17:57:40.787Z,100153.00
2018-11-06T18:00:12.866Z,100154.00
2018-11-06T18:02:41.237Z,100155.00
2018-11-06T18:05:10.055Z,100158.00
2018-11-06T18:07:38.299Z,100168.00
2018-11-06T18:10:07.279Z,100168.00
2018-11-06T18:12:35.240Z,100165.00
2018-11-06T18:15:03.195Z,100163.00
2018-11-06T18:17:31.215Z,100161.00
2018-11-06T18:19:59.090Z,100172.00
2018-11-06T18:22:27.010Z,100168.00
2018-11-06T18:24:54.948Z,100169.00
2018-11-06T18:27:22.895Z,100167.00
2018-11-06T18:29:51.032Z,100165.00
2018-11-06T18:32:19.106Z,100170.00
2018-11-06T18:34:46.925Z,100173.00
2018-11-06T18:37:14.904Z,100175.00
2018-11-06T18:39:42.831Z,100179.00
2018-11-06T18:42:10.787Z,100181.00
2018-11-06T18:44:38.729Z,100183.00
2018-11-06T18:47:06.796Z,100178.00
2018-11-06T18:49:34.774Z,100179.00
2018-11-06T18:52:02.729Z,100188.00
2018-11-06T18:54:30.652Z,100189.00
2018-11-06T18:56:58.599Z,100187.00
2018-11-06T18:59:26.515Z,100188.00
2018-11-06T19:01:54.455Z,100187.00
2018-11-06T19:04:22.478Z,100191.00
2018-11-06T19:06:50.359Z,100193.00
2018-11-06T19:09:18.299Z,100201.00
2018-11-06T19:11:46.299Z,100211.00
2018-11-06T19:14:14.241Z,100214.00
2018-11-06T19:16:42.186Z,100207.00
2018-11-06T19:19:10.117Z,100205.00
2018-11-06T19:21:38.072Z,100204.00
2018-11-06T19:24:06.077Z,100207.00
2018-11-06T19:26:33.955Z,100202.00
2018-11-06T19:29:01.910Z,100204.00
2018-11-06T19:31:29.842Z,100203.00
2018-11-06T19:33:57.776Z,100203.00
2018-11-06T19:36:25.739Z,100204.00
2018-11-06T19:38:53.654Z,100208.00
2018-11-06T19:41:21.630Z,100213.00
2018-11-06T19:43:49.551Z,100207.00
2018-11-06T19:46:17.511Z,100208.00
2018-11-06T19:48:45.556Z,100209.00
2018-11-06T19:51:13.484Z,100205.00
2018-11-06T19:53:41.539Z,100205.00
2018-11-06T19:56:09.380Z,100205.00
2018-11-06T19:58:37.442Z,100204.00
2018-11-06T20:01:05.392Z,100204.00
2018-11-06T20:03:34.127Z,100204.00
2018-11-06T20:06:02.188Z,100211.00
2018-11-06T20:08:29.902Z,100201.00
2018-11-06T20:10:57.866Z,100212.00
2018-11-06T20:13:25.798Z,100219.00
2018-11-06T20:15:53.841Z,100213.00
2018-11-06T20:18:21.668Z,100215.00
2018-11-06T20:20:49.611Z,100217.00
2018-11-06T20:23:18.515Z,100218.00
2018-11-06T20:25:46.499Z,100222.00
2018-11-06T20:28:14.410Z,100218.00
2018-11-06T20:30:42.381Z,100215.00
2018-11-06T20:33:10.448Z,100221.00
2018-11-06T20:35:38.328Z,100223.00
2018-11-06T20:38:06.270Z,100220.00
2018-11-06T20:40:34.096Z,100221.00
2018-11-06T20:43:02.049Z,100226.00
2018-11-06T20:45:29.984Z,100232.00
2018-11-06T20:47:57.940Z,100235.00
2018-11-06T20:50:25.898Z,100244.00
2018-11-06T20:52:53.871Z,100242.00
2018-11-06T20:55:21.825Z,100241.00
2018-11-06T20:57:49.716Z,100241.00
2018-11-06T21:00:20.385Z,100239.00
2018-11-06T21:02:48.985Z,100234.00
2018-11-06T21:05:17.239Z,100237.00
2018-11-06T21:07:45.807Z,100253.00
2018-11-06T21:10:14.292Z,100259.00
2018-11-06T21:12:42.235Z,100260.00
2018-11-06T21:15:10.827Z,100242.00
2018-11-06T21:17:38.781Z,100245.00
2018-11-06T21:20:07.908Z,100252.00
2018-11-06T21:22:35.794Z,100256.00
2018-11-06T21:25:03.847Z,100255.00
2018-11-06T21:27:31.752Z,100259.00
2018-11-06T21:30:00.005Z,100255.00
2018-11-06T21:32:27.911Z,100257.00
2018-11-06T21:34:56.028Z,100264.00
2018-11-06T21:37:23.955Z,100261.00
2018-11-06T21:39:51.866Z,100259.00
2018-11-06T21:42:19.861Z,100263.00
2018-11-06T21:44:47.767Z,100257.00
2018-11-06T21:47:15.698Z,100261.00
2018-11-06T21:49:43.659Z,100269.00
2018-11-06T21:52:11.575Z,100266.00
2018-11-06T21:54:39.544Z,100266.00
2018-11-06T21:57:07.475Z,100262.00
2018-11-06T21:59:35.399Z,100265.00
2018-11-06T22:02:03.332Z,100273.00
2018-11-06T22:04:31.257Z,100274.00
2018-11-06T22:06:59.197Z,100277.00
2018-11-06T22:09:27.179Z,100277.00
2018-11-06T22:11:55.167Z,100274.00
2018-11-06T22:14:23.104Z,100268.00
2018-11-06T22:16:51.028Z,100267.00
2018-11-06T22:19:18.960Z,100271.00
2018-11-06T22:21:46.875Z,100269.00
2018-11-06T22:24:14.795Z,100261.00
2018-11-06T22:26:42.720Z,100253.00
2018-11-06T22:29:10.647Z,100256.00
2018-11-06T22:31:38.696Z,100255.00
2018-11-06T22:34:06.536Z,100258.00
2018-11-06T22:36:34.448Z,100250.00
2018-11-06T22:39:02.395Z,100257.00
2018-11-06T22:41:30.335Z,100256.00
2018-11-06T22:43:58.247Z,100258.00
2018-11-06T22:46:26.225Z,100257.00
2018-11-06T22:48:54.142Z,100263.00
2018-11-06T22:51:22.088Z,100265.00
2018-11-06T22:53:50.029Z,100276.00
2018-11-06T22:56:17.971Z,100272.00
2018-11-06T22:58:45.908Z,100277.00
2018-11-06T23:01:19.316Z,100274.00
2018-11-06T23:03:47.275Z,100274.00
2018-11-06T23:06:15.364Z,100273.00
2018-11-06T23:08:43.193Z,100263.00
2018-11-06T23:11:11.115Z,100267.00
2018-11-06T23:13:39.067Z,100259.00
2018-11-06T23:16:06.992Z,100255.00
2018-11-06T23:18:34.940Z,100252.00
2018-11-06T23:21:02.909Z,100249.00
2018-11-06T23:23:30.887Z,100247.00
2018-11-06T23:25:58.788Z,100246.00
2018-11-06T23:28:26.737Z,100246.00
2018-11-06T23:30:54.671Z,100259.00
2018-11-06T23:33:22.575Z,100269.00
2018-11-06T23:35:50.549Z,100269.00
2018-11-06T23:38:18.463Z,100271.00
2018-11-06T23:40:46.384Z,100268.00
2018-11-06T23:43:14.343Z,100270.00
2018-11-06T23:45:42.271Z,100267.00
2018-11-06T23:48:10.203Z,100269.00
2018-11-06T23:50:38.152Z,100271.00
2018-11-06T23:53:06.088Z,100278.00
2018-11-06T23:55:34.023Z,100276.00
2018-11-06T23:58:01.928Z,100278.00
